createdAt,value
2023-11-26T00:00:28.268Z,99383.96
2023-11-26T00:41:22.090Z,99442.80
2023-11-26T00:43:50.804Z,99446.83
2023-11-26T00:46:18.937Z,99444.77
2023-11-26T00:48:47.269Z,99450.23
2023-11-26T00:51:19.479Z,99454.41
2023-11-26T00:53:47.574Z,99457.93
2023-11-26T00:56:15.573Z,99461.60
2023-11-26T00:58:43.691Z,99460.59
2023-11-26T01:01:11.992Z,99464.08
2023-11-26T01:03:40.167Z,99464.11
2023-11-26T01:06:08.892Z,99465.25
2023-11-26T01:08:39.593Z,99469.20
2023-11-26T01:11:14.692Z,99472.55
2023-11-26T01:13:43.097Z,99472.41
2023-11-26T01:16:11.340Z,99473.63
2023-11-26T01:18:40.637Z,99478.63
2023-11-26T01:21:09.015Z,99478.88
2023-11-26T01:23:37.111Z,99481.29
2023-11-26T01:26:05.626Z,99485.45
2023-11-26T01:28:33.948Z,99485.89
2023-11-26T01:31:02.018Z,99488.59
2023-11-26T01:33:30.132Z,99486.65
2023-11-26T01:35:58.277Z,99485.98
2023-11-26T01:38:26.530Z,99487.52
2023-11-26T01:40:54.785Z,99489.71
2023-11-26T01:43:26.098Z,99494.02
2023-11-26T01:46:06.130Z,99497.94
2023-11-26T01:48:36.376Z,99503.71
2023-11-26T01:51:06.952Z,99508.14
2023-11-26T01:53:35.422Z,99512.38
2023-11-26T01:56:03.631Z,99512.16
2023-11-26T01:58:31.955Z,99513.02
2023-11-26T02:01:00.121Z,99517.70
2023-11-26T02:03:28.281Z,99516.36
2023-11-26T02:05:56.289Z,99524.42
2023-11-26T02:08:25.097Z,99526.30
2023-11-26T02:10:53.073Z,99524.17
2023-11-26T02:13:21.181Z,99525.47
2023-11-26T02:15:49.400Z,99524.46
2023-11-26T02:18:20.568Z,99528.52
2023-11-26T02:20:48.815Z,99528.38
2023-11-26T02:23:17.140Z,99529.45
2023-11-26T02:25:45.096Z,99534.20
2023-11-26T02:28:13.103Z,99535.23
2023-11-26T02:30:41.321Z,99539.00
2023-11-26T02:33:09.368Z,99541.05
2023-11-26T02:35:37.861Z,99544.15
2023-11-26T02:38:05.921Z,99548.22
2023-11-26T02:40:34.090Z,99552.71
2023-11-26T02:43:02.434Z,99554.61
2023-11-26T02:45:30.637Z,99560.04
2023-11-26T02:47:58.625Z,99561.19
2023-11-26T02:50:27.103Z,99561.25
2023-11-26T02:52:55.342Z,99561.73
2023-11-26T02:55:23.380Z,99560.89
2023-11-26T02:57:51.595Z,99560.74
2023-11-26T03:00:21.878Z,99558.01
2023-11-26T03:02:50.362Z,99553.77
2023-11-26T03:05:19.750Z,99565.73
2023-11-26T03:07:49.025Z,99568.44
2023-11-26T03:10:38.208Z,99572.16
2023-11-26T03:13:13.753Z,99575.00
2023-11-26T03:15:43.160Z,99578.02
2023-11-26T03:18:14.784Z,99581.80
2023-11-26T03:20:43.248Z,99585.55
2023-11-26T03:23:11.682Z,99587.91
2023-11-26T03:25:39.988Z,99589.14
2023-11-26T03:28:07.971Z,99588.56
2023-11-26T03:30:37.461Z,99594.55
2023-11-26T03:33:05.825Z,99598.83
2023-11-26T03:35:34.468Z,99597.56
2023-11-26T03:38:02.501Z,99597.62
2023-11-26T03:40:30.841Z,99606.14
2023-11-26T03:42:58.896Z,99603.32
2023-11-26T03:45:26.951Z,99610.11
2023-11-26T03:47:55.121Z,99614.93
2023-11-26T03:50:23.971Z,99616.44
2023-11-26T03:52:52.187Z,99618.27
2023-11-26T03:55:21.045Z,99620.04
2023-11-26T03:57:49.234Z,99623.84
2023-11-26T04:00:17.710Z,99622.67
2023-11-26T04:02:45.973Z,99624.75
2023-11-26T04:05:14.541Z,99625.42
2023-11-26T04:07:46.376Z,99630.86
2023-11-26T04:10:22.265Z,99637.14
2023-11-26T04:12:55.858Z,99643.67
2023-11-26T04:15:24.318Z,99648.94
2023-11-26T04:17:52.736Z,99652.29
2023-11-26T04:20:21.191Z,99654.55
2023-11-26T04:22:49.138Z,99653.08
2023-11-26T04:25:19.328Z,99659.73
2023-11-26T04:27:47.329Z,99662.88
2023-11-26T04:30:15.671Z,99667.06
2023-11-26T04:32:44.003Z,99671.15
2023-11-26T04:35:12.517Z,99672.91
2023-11-26T04:37:40.752Z,99678.58
2023-11-26T04:40:09.278Z,99682.15
2023-11-26T04:42:37.614Z,99685.84
2023-11-26T04:45:06.187Z,99686.55
2023-11-26T04:47:37.308Z,99690.04
2023-11-26T04:50:06.652Z,99698.41
2023-11-26T04:52:34.929Z,99704.62
2023-11-26T04:55:02.994Z,99707.86
2023-11-26T04:57:31.434Z,99711.20
2023-11-26T04:59:59.741Z,99721.62
2023-11-26T05:02:33.392Z,99724.35
2023-11-26T05:05:02.241Z,99729.80
2023-11-26T05:07:30.425Z,99732.93
2023-11-26T05:09:58.614Z,99739.84
2023-11-26T05:12:26.604Z,99741.84
2023-11-26T05:14:57.734Z,99743.64
2023-11-26T05:17:25.742Z,99744.80
2023-11-26T05:19:54.002Z,99745.34
2023-11-26T05:22:24.871Z,99750.86
2023-11-26T05:24:53.052Z,99757.42
2023-11-26T05:27:23.114Z,99759.48
2023-11-26T05:29:51.292Z,99762.85
2023-11-26T05:32:19.645Z,99765.28
2023-11-26T05:34:47.909Z,99768.75
2023-11-26T05:37:19.021Z,99767.66
2023-11-26T05:39:49.208Z,99769.70
2023-11-26T05:42:17.972Z,99774.33
2023-11-26T05:44:46.087Z,99778.67
2023-11-26T05:47:14.191Z,99784.63
2023-11-26T05:49:42.494Z,99785.52
2023-11-26T05:52:13.077Z,99783.30
2023-11-26T05:54:41.102Z,99790.36
2023-11-26T05:57:09.206Z,99791.35
2023-11-26T05:59:40.910Z,99796.91
2023-11-26T06:02:09.291Z,99798.69
2023-11-26T06:04:38.029Z,99797.19
2023-11-26T06:07:07.280Z,99801.44
2023-11-26T06:09:35.647Z,99803.95
2023-11-26T06:12:05.087Z,99810.86
2023-11-26T06:14:33.144Z,99815.76
2023-11-26T06:17:01.456Z,99820.18
2023-11-26T06:19:29.730Z,99816.92
2023-11-26T06:21:57.998Z,99821.70
2023-11-26T06:24:26.132Z,99819.58
2023-11-26T06:26:54.728Z,99822.49
2023-11-26T06:29:22.860Z,99822.61
2023-11-26T06:31:50.893Z,99824.59
2023-11-26T06:34:26.713Z,99825.29
2023-11-26T06:36:54.926Z,99828.82
2023-11-26T06:39:25.530Z,99827.55
2023-11-26T06:41:53.625Z,99827.36
2023-11-26T06:44:22.003Z,99824.09
2023-11-26T06:46:54.121Z,99831.99
2023-11-26T06:49:22.971Z,99835.37
2023-11-26T06:51:52.343Z,99844.64
2023-11-26T06:54:20.560Z,99844.61
2023-11-26T06:56:48.512Z,99854.43
2023-11-26T06:59:16.610Z,99858.58
2023-11-26T07:01:44.691Z,99865.48
2023-11-26T07:04:13.007Z,99865.55
2023-11-26T07:06:42.360Z,99870.48
2023-11-26T07:09:11.683Z,99875.90
2023-11-26T07:11:40.014Z,99877.30
2023-11-26T07:14:07.995Z,99882.95
2023-11-26T07:16:36.123Z,99886.69
2023-11-26T07:19:05.570Z,99889.02
2023-11-26T07:21:41.258Z,99888.20
2023-11-26T07:24:10.022Z,99891.27
2023-11-26T07:26:38.508Z,99894.61
2023-11-26T07:29:07.733Z,99902.44
2023-11-26T07:31:36.637Z,99909.63
2023-11-26T07:34:04.906Z,99914.81
2023-11-26T07:36:33.711Z,99919.04
2023-11-26T07:39:02.367Z,99920.77
2023-11-26T07:41:30.685Z,99922.56
2023-11-26T07:43:58.991Z,99928.42
2023-11-26T07:46:27.409Z,99933.38
2023-11-26T07:48:56.601Z,99934.11
2023-11-26T07:51:24.698Z,99940.14
2023-11-26T07:53:52.735Z,99939.76
2023-11-26T07:56:20.842Z,99942.42
2023-11-26T07:58:48.853Z,99945.20
2023-11-26T08:01:17.212Z,99945.35
2023-11-26T08:03:45.705Z,99951.05
2023-11-26T08:06:17.172Z,99949.63
2023-11-26T08:08:45.446Z,99954.45
2023-11-26T08:11:15.763Z,99953.70
2023-11-26T08:13:43.863Z,99959.51
2023-11-26T08:16:15.630Z,99962.98
2023-11-26T08:18:44.007Z,99961.19
2023-11-26T08:21:12.228Z,99966.20
2023-11-26T08:23:51.811Z,99966.03
2023-11-26T08:26:24.202Z,99967.80
2023-11-26T08:28:52.835Z,99966.98
2023-11-26T08:31:24.960Z,99970.44
2023-11-26T08:33:54.872Z,99976.38
2023-11-26T08:36:26.512Z,99977.16
2023-11-26T08:38:57.001Z,99980.89
2023-11-26T08:41:26.448Z,99987.60
2023-11-26T08:43:57.502Z,99991.69
2023-11-26T08:46:28.462Z,99991.36
2023-11-26T08:48:57.597Z,99999.21
2023-11-26T08:51:27.153Z,100001.83
2023-11-26T08:53:55.258Z,100004.57
2023-11-26T08:56:23.354Z,100006.77
2023-11-26T08:58:51.399Z,100008.05
2023-11-26T09:01:19.441Z,100009.59
2023-11-26T09:03:47.876Z,100013.05
2023-11-26T09:06:16.648Z,100017.44
2023-11-26T09:08:50.700Z,100016.44
2023-11-26T09:11:19.690Z,100020.73
2023-11-26T09:13:48.176Z,100023.72
2023-11-26T09:16:19.591Z,100018.36
2023-11-26T09:18:47.976Z,100016.09
2023-11-26T09:21:16.380Z,100018.55
2023-11-26T09:23:45.372Z,100025.89
2023-11-26T09:26:14.542Z,100022.48
2023-11-26T09:28:44.271Z,100021.48
2023-11-26T09:31:12.403Z,100017.61
2023-11-26T09:33:41.349Z,100018.00
2023-11-26T09:36:10.025Z,100016.65
2023-11-26T09:38:39.546Z,100017.36
2023-11-26T09:41:08.735Z,100013.76
2023-11-26T09:43:37.040Z,100012.77
2023-11-26T09:46:05.721Z,100010.04
2023-11-26T09:48:34.532Z,100009.34
2023-11-26T09:51:06.159Z,100007.52
2023-11-26T09:53:34.901Z,100010.58
2023-11-26T09:56:05.838Z,100009.91
2023-11-26T09:58:40.594Z,100009.55
2023-11-26T10:01:09.421Z,100010.08
2023-11-26T10:04:00.454Z,100007.11
2023-11-26T10:06:30.202Z,100009.01
2023-11-26T10:08:59.463Z,100010.84
2023-11-26T10:11:28.152Z,100009.14
2023-11-26T10:13:57.039Z,100011.96
2023-11-26T10:16:35.279Z,100010.36
2023-11-26T10:19:04.599Z,100007.23
2023-11-26T10:21:33.686Z,100007.58
2023-11-26T10:24:03.329Z,100010.27
2023-11-26T10:26:33.534Z,100008.64
2023-11-26T10:29:13.778Z,100007.31
2023-11-26T10:32:02.256Z,100006.95
2023-11-26T10:34:34.751Z,100009.19
2023-11-26T10:37:21.990Z,100009.79
2023-11-26T10:39:54.947Z,100005.94
2023-11-26T10:42:23.561Z,100005.61
2023-11-26T10:44:55.337Z,100001.77
2023-11-26T10:47:24.633Z,100005.09
2023-11-26T10:49:53.970Z,100003.31
2023-11-26T10:52:53.149Z,100005.64
2023-11-26T10:55:35.951Z,100001.77
2023-11-26T10:58:17.860Z,100002.11
2023-11-26T11:00:51.696Z,99995.77
2023-11-26T11:03:20.418Z,99994.96
2023-11-26T11:05:49.088Z,99998.54
2023-11-26T11:08:18.085Z,100001.94
2023-11-26T11:10:51.900Z,99999.10
2023-11-26T11:13:21.243Z,99998.17
2023-11-26T11:15:50.484Z,99998.33
2023-11-26T11:18:27.670Z,99992.49
2023-11-26T11:21:11.999Z,99992.00
2023-11-26T11:23:48.304Z,99994.88
2023-11-26T11:26:17.910Z,99996.20
2023-11-26T11:28:50.703Z,99997.63
2023-11-26T11:31:21.147Z,100000.86
2023-11-26T11:34:01.913Z,100006.63
2023-11-26T11:36:51.295Z,100011.13
2023-11-26T11:39:27.894Z,100014.73
2023-11-26T11:41:59.573Z,100015.16
2023-11-26T11:44:30.749Z,100014.24
2023-11-26T11:47:02.006Z,100015.90
2023-11-26T11:49:50.155Z,100017.04
2023-11-26T11:52:18.721Z,100016.84
2023-11-26T11:55:00.716Z,100016.40
2023-11-26T11:57:30.013Z,100022.69
2023-11-26T11:59:58.232Z,100022.64
2023-11-26T12:02:27.700Z,100018.08
2023-11-26T12:04:56.100Z,100016.14
2023-11-26T12:07:32.586Z,100015.71
2023-11-26T12:10:07.532Z,100016.50
2023-11-26T12:12:37.035Z,100022.16
2023-11-26T12:15:09.475Z,100020.92
2023-11-26T12:17:44.110Z,100024.05
2023-11-26T12:20:13.479Z,100017.75
2023-11-26T12:22:47.912Z,100016.36
2023-11-26T12:25:22.622Z,100014.52
2023-11-26T12:28:03.272Z,100009.64
2023-11-26T12:30:31.632Z,100010.23
2023-11-26T12:33:00.018Z,100015.94
2023-11-26T12:35:29.500Z,100013.56
2023-11-26T12:37:59.595Z,100012.61
2023-11-26T12:40:29.849Z,100018.23
2023-11-26T12:42:58.687Z,100021.90
2023-11-26T12:45:26.885Z,100023.33
2023-11-26T12:47:57.988Z,100028.33
2023-11-26T12:50:28.960Z,100030.27
2023-11-26T12:52:58.558Z,100026.30
2023-11-26T12:55:26.695Z,100025.28
2023-11-26T12:57:55.029Z,100026.64
2023-11-26T13:00:38.595Z,100033.78
2023-11-26T13:03:07.144Z,100039.52
2023-11-26T13:05:38.139Z,100041.29
2023-11-26T13:08:19.952Z,100042.41
2023-11-26T13:10:57.180Z,100043.61
2023-11-26T13:13:33.196Z,100042.54
2023-11-26T13:16:04.571Z,100039.94
2023-11-26T13:18:32.956Z,100039.53
2023-11-26T13:21:07.615Z,100038.79
2023-11-26T13:23:35.950Z,100042.89
2023-11-26T13:26:05.007Z,100048.40
2023-11-26T13:28:34.619Z,100049.29
2023-11-26T13:31:02.764Z,100048.08
2023-11-26T13:33:31.897Z,100049.33
2023-11-26T13:36:01.913Z,100051.96
2023-11-26T13:38:30.390Z,100053.79
2023-11-26T13:40:59.555Z,100056.07
2023-11-26T13:43:27.770Z,100056.86
2023-11-26T13:45:56.888Z,100058.40
2023-11-26T13:48:26.424Z,100058.84
2023-11-26T13:50:55.333Z,100053.41
2023-11-26T13:53:26.438Z,100053.20
2023-11-26T13:55:55.806Z,100049.90
2023-11-26T13:58:24.426Z,100050.08
2023-11-26T14:00:53.549Z,100045.92
2023-11-26T14:03:21.701Z,100051.66
2023-11-26T14:05:50.425Z,100053.55
2023-11-26T14:08:20.081Z,100054.41
2023-11-26T14:10:50.268Z,100056.57
2023-11-26T14:13:19.342Z,100058.13
2023-11-26T14:15:50.882Z,100058.88
2023-11-26T14:18:19.839Z,100064.68
2023-11-26T14:20:48.310Z,100063.65
2023-11-26T14:23:16.943Z,100067.98
2023-11-26T14:25:45.531Z,100069.77
2023-11-26T14:28:16.831Z,100067.27
2023-11-26T14:30:48.875Z,100067.85
2023-11-26T14:33:17.212Z,100070.50
2023-11-26T14:35:45.737Z,100071.90
2023-11-26T14:38:14.536Z,100070.86
2023-11-26T14:40:43.780Z,100070.55
2023-11-26T14:43:12.995Z,100067.54
2023-11-26T14:45:43.140Z,100065.61
2023-11-26T14:48:11.519Z,100060.51
2023-11-26T14:50:40.505Z,100058.83
2023-11-26T14:53:09.088Z,100059.42
2023-11-26T14:55:39.720Z,100053.33
2023-11-26T14:58:09.164Z,100053.68
2023-11-26T15:06:57.903Z,100059.54
2023-11-26T15:10:42.361Z,100057.42
2023-11-26T15:35:10.321Z,100060.20
2023-11-26T15:37:42.040Z,100063.55
2023-11-26T15:40:12.509Z,100058.97
2023-11-26T15:42:41.647Z,100059.63
2023-11-26T15:45:13.928Z,100053.79
2023-11-26T15:47:43.493Z,100048.14
2023-11-26T15:50:12.978Z,100046.85
2023-11-26T15:52:41.403Z,100047.99
2023-11-26T15:55:11.158Z,100048.79
2023-11-26T15:57:40.188Z,100050.31
2023-11-26T16:00:08.947Z,100046.08
2023-11-26T16:02:39.369Z,100046.86
2023-11-26T16:05:08.026Z,100045.72
2023-11-26T16:07:38.902Z,100047.67
2023-11-26T16:10:07.696Z,100053.15
2023-11-26T16:12:36.806Z,100052.90
2023-11-26T16:15:05.424Z,100054.92
2023-11-26T16:17:34.839Z,100053.55
2023-11-26T16:20:10.124Z,100056.69
2023-11-26T16:22:38.602Z,100055.05
2023-11-26T16:25:10.888Z,100060.63
2023-11-26T16:27:40.106Z,100057.77
2023-11-26T16:30:08.812Z,100055.39
2023-11-26T16:32:37.003Z,100057.66
2023-11-26T16:35:06.034Z,100055.02
2023-11-26T16:37:34.398Z,100056.48
2023-11-26T16:40:12.092Z,100053.77
2023-11-26T16:42:40.478Z,100058.20
2023-11-26T16:45:10.290Z,100061.98
2023-11-26T16:47:39.468Z,100064.44
2023-11-26T16:50:07.985Z,100060.45
2023-11-26T16:52:36.004Z,100067.47
2023-11-26T16:55:04.786Z,100064.48
2023-11-26T16:57:32.903Z,100068.73
2023-11-26T17:00:01.265Z,100070.34
2023-11-26T17:02:30.765Z,100074.91
2023-11-26T17:04:59.227Z,100073.11
2023-11-26T17:07:27.354Z,100076.63
2023-11-26T17:09:55.733Z,100077.14
2023-11-26T17:12:24.237Z,100082.27
2023-11-26T17:14:52.527Z,100075.46
2023-11-26T17:17:24.921Z,100073.52
2023-11-26T17:19:53.720Z,100074.63
2023-11-26T17:22:21.879Z,100071.92
2023-11-26T17:24:50.594Z,100075.73
2023-11-26T17:27:19.344Z,100068.96
2023-11-26T17:29:47.328Z,100064.42
2023-11-26T17:32:15.715Z,100065.89
2023-11-26T17:34:44.488Z,100061.16
2023-11-26T17:37:12.588Z,100055.03
2023-11-26T17:39:40.819Z,100060.95
2023-11-26T17:42:08.978Z,100057.65
2023-11-26T17:44:37.130Z,100061.29
2023-11-26T17:47:08.811Z,100061.14
2023-11-26T17:49:41.667Z,100062.89
2023-11-26T17:52:10.130Z,100067.15
2023-11-26T17:54:38.623Z,100067.10
2023-11-26T17:57:07.868Z,100068.77
2023-11-26T17:59:36.214Z,100063.04
2023-11-26T18:02:04.667Z,100066.52
2023-11-26T18:04:32.943Z,100064.20
2023-11-26T18:07:01.066Z,100064.64
2023-11-26T18:09:29.762Z,100067.89
2023-11-26T18:11:57.869Z,100070.85
2023-11-26T18:14:26.249Z,100071.99
2023-11-26T18:16:56.691Z,100073.96
2023-11-26T18:19:25.044Z,100075.14
2023-11-26T18:21:53.535Z,100078.15
2023-11-26T18:24:21.613Z,100078.24
2023-11-26T18:26:49.918Z,100080.41
2023-11-26T18:29:18.858Z,100078.31
2023-11-26T18:31:47.072Z,100076.89
2023-11-26T18:34:16.423Z,100078.85
2023-11-26T18:36:44.822Z,100087.59
2023-11-26T18:39:13.248Z,100085.05
2023-11-26T18:41:41.270Z,100085.93
2023-11-26T18:44:10.085Z,100088.95
2023-11-26T18:46:38.768Z,100086.98
2023-11-26T18:49:06.966Z,100080.94
2023-11-26T18:51:35.465Z,100076.20
2023-11-26T18:54:04.275Z,100070.46
2023-11-26T18:56:32.791Z,100073.05
2023-11-26T18:59:07.959Z,100068.92
2023-11-26T19:01:37.526Z,100066.92
2023-11-26T19:04:06.700Z,100060.88
2023-11-26T19:06:35.737Z,100055.34
2023-11-26T19:09:04.521Z,100054.25
2023-11-26T19:11:34.039Z,100056.38
2023-11-26T19:14:02.490Z,100055.65
2023-11-26T19:16:30.875Z,100057.06
2023-11-26T19:19:17.931Z,100055.58
2023-11-26T19:21:50.542Z,100056.14
2023-11-26T19:24:18.908Z,100056.36
2023-11-26T19:26:47.261Z,100054.22
2023-11-26T19:29:16.453Z,100052.13
2023-11-26T19:31:47.530Z,100053.93
2023-11-26T19:34:16.184Z,100055.73
2023-11-26T19:36:44.692Z,100055.19
2023-11-26T19:39:14.516Z,100056.77
2023-11-26T19:41:43.007Z,100055.95
2023-11-26T19:44:11.404Z,100054.85
2023-11-26T19:46:42.768Z,100052.70
2023-11-26T19:49:11.480Z,100048.48
2023-11-26T19:51:39.729Z,100044.84
2023-11-26T19:54:12.118Z,100047.42
2023-11-26T19:56:40.343Z,100050.25
2023-11-26T19:59:08.530Z,100046.10
2023-11-26T20:01:36.843Z,100022.48
2023-11-26T20:04:05.316Z,100048.17
2023-11-26T20:06:34.035Z,100049.78
2023-11-26T20:09:02.121Z,100051.66
2023-11-26T20:11:30.418Z,100047.49
2023-11-26T20:13:59.193Z,100052.08
2023-11-26T20:16:27.897Z,100047.15
2023-11-26T20:18:56.464Z,100048.00
2023-11-26T20:21:25.556Z,100024.46
2023-11-26T20:23:54.508Z,100047.37
2023-11-26T20:26:23.632Z,100044.09
2023-11-26T20:28:52.412Z,100036.15
2023-11-26T20:31:20.521Z,100030.30
2023-11-26T20:33:49.092Z,100024.02
2023-11-26T20:36:19.913Z,100020.58
2023-11-26T20:38:49.093Z,100023.34
2023-11-26T20:41:17.200Z,100025.29
2023-11-26T20:43:45.384Z,100026.86
2023-11-26T20:46:22.278Z,100024.87
2023-11-26T20:48:51.009Z,100021.31
2023-11-26T20:51:26.934Z,100013.98
2023-11-26T20:53:58.950Z,100015.52
2023-11-26T20:56:28.367Z,100010.55
2023-11-26T20:58:58.570Z,100008.28
2023-11-26T21:01:28.287Z,100005.35
2023-11-26T21:04:02.258Z,99997.61
2023-11-26T21:06:30.752Z,99999.56
2023-11-26T21:08:59.240Z,99997.02
2023-11-26T21:11:27.228Z,99998.56
2023-11-26T21:13:55.574Z,100001.45
2023-11-26T21:16:25.169Z,99998.70
2023-11-26T21:18:53.585Z,99994.48
2023-11-26T21:21:21.592Z,99986.19
2023-11-26T21:23:50.143Z,99982.28
2023-11-26T21:26:18.292Z,99973.50
2023-11-26T21:28:46.520Z,99969.34
2023-11-26T21:31:14.787Z,99972.13
2023-11-26T21:33:43.057Z,99977.27
2023-11-26T21:36:11.631Z,99971.44
2023-11-26T21:38:39.700Z,99971.86
2023-11-26T21:41:14.596Z,99967.41
2023-11-26T21:43:43.127Z,99965.96
2023-11-26T21:46:32.447Z,99961.11
2023-11-26T21:49:07.729Z,99962.70
2023-11-26T21:51:37.506Z,99969.46
2023-11-26T21:54:05.686Z,99967.67
2023-11-26T21:56:35.641Z,99971.70
2023-11-26T21:59:04.549Z,99970.79
2023-11-26T22:01:33.152Z,99976.09
2023-11-26T22:04:01.356Z,99974.10
2023-11-26T22:06:29.959Z,99973.80
2023-11-26T22:08:58.280Z,99973.54
2023-11-26T22:11:26.887Z,99973.83
2023-11-26T22:13:55.391Z,99970.04
2023-11-26T22:16:23.641Z,99971.04
2023-11-26T22:18:51.975Z,99969.20
2023-11-26T22:21:21.081Z,99970.95
2023-11-26T22:23:50.041Z,99973.10
2023-11-26T22:26:18.232Z,99973.30
2023-11-26T22:28:46.681Z,99971.30
2023-11-26T22:31:17.295Z,99965.70
2023-11-26T22:33:46.080Z,99963.77
2023-11-26T22:36:24.318Z,99965.70
2023-11-26T22:38:53.112Z,99962.68
2023-11-26T22:41:26.266Z,99963.75
2023-11-26T22:43:58.992Z,99956.70
2023-11-26T22:46:28.769Z,99957.10
2023-11-26T22:49:00.768Z,99957.79
2023-11-26T22:51:29.366Z,99955.29
2023-11-26T22:53:57.328Z,99956.55
2023-11-26T22:56:26.159Z,99959.66
2023-11-26T22:58:55.159Z,99957.73
2023-11-26T23:01:24.831Z,99959.67
2023-11-26T23:03:54.177Z,99958.98
2023-11-26T23:06:22.419Z,99955.62
2023-11-26T23:08:50.493Z,99960.25
2023-11-26T23:11:19.481Z,99959.41
2023-11-26T23:13:50.215Z,99954.74
2023-11-26T23:16:18.372Z,99951.69
2023-11-26T23:18:46.736Z,99957.80
2023-11-26T23:21:16.384Z,99962.43
2023-11-26T23:23:51.724Z,99961.19
2023-11-26T23:26:22.643Z,99957.89
2023-11-26T23:28:51.023Z,99958.36
2023-11-26T23:31:21.775Z,99949.94
2023-11-26T23:33:50.591Z,99949.86
2023-11-26T23:36:19.034Z,99951.14
2023-11-26T23:38:51.070Z,99952.40
2023-11-26T23:41:19.246Z,99956.75
2023-11-26T23:43:47.168Z,99955.28
2023-11-26T23:46:15.438Z,99951.89
2023-11-26T23:48:44.258Z,99949.64
2023-11-26T23:51:12.406Z,99945.46
2023-11-26T23:53:40.477Z,99941.52
2023-11-26T23:56:08.774Z,99934.98
2023-11-26T23:58:36.999Z,99932.86
